sensor_id;sensor_type;location;lat;lon;timestamp;P1;durP1;ratioP1;P2;durP2;ratioP2
51384;SDS011;37478;55.682;37.462;2022-12-04T00:00:36;28.07;;;12.30;;
51384;SDS011;37478;55.682;37.462;2022-12-04T00:03:01;20.63;;;10.97;;
51384;SDS011;37478;55.682;37.462;2022-12-04T00:05:26;28.83;;;12.30;;
51384;SDS011;37478;55.682;37.462;2022-12-04T00:07:51;29.10;;;15.17;;
51384;SDS011;37478;55.682;37.462;2022-12-04T00:10:17;27.88;;;12.60;;
51384;SDS011;37478;55.682;37.462;2022-12-04T00:12:42;27.80;;;12.17;;
51384;SDS011;37478;55.682;37.462;2022-12-04T00:15:08;31.80;;;12.53;;
51384;SDS011;37478;55.682;37.462;2022-12-04T00:17:33;23.87;;;12.83;;
51384;SDS011;37478;55.682;37.462;2022-12-04T00:19:59;19.53;;;9.57;;
51384;SDS011;37478;55.682;37.462;2022-12-04T00:22:24;20.20;;;10.67;;
51384;SDS011;37478;55.682;37.462;2022-12-04T00:24:49;23.63;;;11.03;;
51384;SDS011;37478;55.682;37.462;2022-12-04T00:27:15;29.67;;;13.37;;
51384;SDS011;37478;55.682;37.462;2022-12-04T00:29:40;21.27;;;10.67;;
51384;SDS011;37478;55.682;37.462;2022-12-04T00:32:05;24.13;;;10.50;;
51384;SDS011;37478;55.682;37.462;2022-12-04T00:34:31;21.53;;;10.70;;
51384;SDS011;37478;55.682;37.462;2022-12-04T00:36:56;29.03;;;12.77;;
51384;SDS011;37478;55.682;37.462;2022-12-04T00:39:21;20.63;;;10.70;;
51384;SDS011;37478;55.682;37.462;2022-12-04T00:41:46;25.57;;;12.00;;
51384;SDS011;37478;55.682;37.462;2022-12-04T00:44:12;26.63;;;11.87;;
51384;SDS011;37478;55.682;37.462;2022-12-04T00:46:37;21.17;;;10.83;;
51384;SDS011;37478;55.682;37.462;2022-12-04T00:49:03;18.80;;;9.67;;
51384;SDS011;37478;55.682;37.462;2022-12-04T00:51:28;17.73;;;9.83;;
51384;SDS011;37478;55.682;37.462;2022-12-04T00:53:55;22.63;;;9.33;;
51384;SDS011;37478;55.682;37.462;2022-12-04T00:56:21;21.13;;;9.60;;
51384;SDS011;37478;55.682;37.462;2022-12-04T00:58:49;19.20;;;9.30;;
51384;SDS011;37478;55.682;37.462;2022-12-04T01:01:16;22.30;;;11.00;;
51384;SDS011;37478;55.682;37.462;2022-12-04T01:03:42;22.90;;;10.43;;
51384;SDS011;37478;55.682;37.462;2022-12-04T01:06:16;18.67;;;10.90;;
51384;SDS011;37478;55.682;37.462;2022-12-04T01:08:41;19.70;;;10.60;;
51384;SDS011;37478;55.682;37.462;2022-12-04T01:11:07;23.57;;;11.30;;
51384;SDS011;37478;55.682;37.462;2022-12-04T01:13:32;20.63;;;9.80;;
51384;SDS011;37478;55.682;37.462;2022-12-04T01:15:57;21.53;;;9.90;;
51384;SDS011;37478;55.682;37.462;2022-12-04T01:18:23;21.90;;;8.17;;
51384;SDS011;37478;55.682;37.462;2022-12-04T01:20:49;17.37;;;9.47;;
51384;SDS011;37478;55.682;37.462;2022-12-04T01:23:14;21.83;;;9.03;;
51384;SDS011;37478;55.682;37.462;2022-12-04T01:25:48;22.50;;;10.47;;
51384;SDS011;37478;55.682;37.462;2022-12-04T01:28:13;21.43;;;10.33;;
51384;SDS011;37478;55.682;37.462;2022-12-04T01:30:38;24.67;;;11.00;;
51384;SDS011;37478;55.682;37.462;2022-12-04T01:33:04;23.83;;;10.00;;
51384;SDS011;37478;55.682;37.462;2022-12-04T01:35:29;18.30;;;10.33;;
51384;SDS011;37478;55.682;37.462;2022-12-04T01:37:54;22.73;;;8.63;;
51384;SDS011;37478;55.682;37.462;2022-12-04T01:40:20;20.00;;;10.03;;
51384;SDS011;37478;55.682;37.462;2022-12-04T01:42:45;22.90;;;11.10;;
51384;SDS011;37478;55.682;37.462;2022-12-04T01:45:27;22.20;;;10.10;;
51384;SDS011;37478;55.682;37.462;2022-12-04T01:50:37;19.10;;;9.13;;
51384;SDS011;37478;55.682;37.462;2022-12-04T01:53:03;22.87;;;9.83;;
51384;SDS011;37478;55.682;37.462;2022-12-04T01:55:28;23.37;;;10.27;;
51384;SDS011;37478;55.682;37.462;2022-12-04T01:57:54;23.83;;;10.63;;
51384;SDS011;37478;55.682;37.462;2022-12-04T02:00:20;21.43;;;10.70;;
51384;SDS011;37478;55.682;37.462;2022-12-04T02:02:45;20.10;;;10.67;;
51384;SDS011;37478;55.682;37.462;2022-12-04T02:05:15;20.20;;;9.10;;
51384;SDS011;37478;55.682;37.462;2022-12-04T02:07:41;19.63;;;8.83;;
51384;SDS011;37478;55.682;37.462;2022-12-04T02:10:08;30.13;;;10.77;;
51384;SDS011;37478;55.682;37.462;2022-12-04T02:13:17;21.77;;;9.97;;
51384;SDS011;37478;55.682;37.462;2022-12-04T02:15:28;20.10;;;8.23;;
51384;SDS011;37478;55.682;37.462;2022-12-04T02:20:45;21.77;;;10.60;;
51384;SDS011;37478;55.682;37.462;2022-12-04T02:28:21;20.37;;;10.13;;
51384;SDS011;37478;55.682;37.462;2022-12-04T02:30:47;19.50;;;9.50;;
51384;SDS011;37478;55.682;37.462;2022-12-04T02:33:17;23.57;;;10.70;;
51384;SDS011;37478;55.682;37.462;2022-12-04T02:35:50;21.10;;;10.50;;
51384;SDS011;37478;55.682;37.462;2022-12-04T02:41:02;16.67;;;10.97;;
51384;SDS011;37478;55.682;37.462;2022-12-04T02:43:43;18.97;;;7.57;;
51384;SDS011;37478;55.682;37.462;2022-12-04T02:46:15;20.53;;;11.00;;
51384;SDS011;37478;55.682;37.462;2022-12-04T02:48:42;15.87;;;8.33;;
51384;SDS011;37478;55.682;37.462;2022-12-04T02:51:10;19.70;;;10.17;;
51384;SDS011;37478;55.682;37.462;2022-12-04T02:53:39;15.13;;;8.43;;
51384;SDS011;37478;55.682;37.462;2022-12-04T02:56:09;14.37;;;8.50;;
51384;SDS011;37478;55.682;37.462;2022-12-04T02:58:43;22.87;;;9.87;;
51384;SDS011;37478;55.682;37.462;2022-12-04T03:01:11;22.40;;;9.27;;
51384;SDS011;37478;55.682;37.462;2022-12-04T03:03:58;24.77;;;9.40;;
51384;SDS011;37478;55.682;37.462;2022-12-04T03:06:25;19.53;;;8.13;;
51384;SDS011;37478;55.682;37.462;2022-12-04T03:08:53;18.57;;;9.77;;
51384;SDS011;37478;55.682;37.462;2022-12-04T03:11:19;14.33;;;9.43;;
51384;SDS011;37478;55.682;37.462;2022-12-04T03:13:46;19.27;;;7.93;;
51384;SDS011;37478;55.682;37.462;2022-12-04T03:16:18;24.40;;;9.93;;
51384;SDS011;37478;55.682;37.462;2022-12-04T03:18:46;21.37;;;9.00;;
51384;SDS011;37478;55.682;37.462;2022-12-04T03:21:15;16.80;;;8.90;;
51384;SDS011;37478;55.682;37.462;2022-12-04T03:23:53;20.23;;;9.30;;
51384;SDS011;37478;55.682;37.462;2022-12-04T03:31:14;19.83;;;9.27;;
51384;SDS011;37478;55.682;37.462;2022-12-04T03:33:45;9.90;;;5.23;;
51384;SDS011;37478;55.682;37.462;2022-12-04T03:38:45;19.57;;;10.17;;
51384;SDS011;37478;55.682;37.462;2022-12-04T03:44:06;16.17;;;8.40;;
51384;SDS011;37478;55.682;37.462;2022-12-04T03:46:37;20.47;;;8.57;;
51384;SDS011;37478;55.682;37.462;2022-12-04T03:49:23;16.20;;;6.43;;
51384;SDS011;37478;55.682;37.462;2022-12-04T03:52:02;21.47;;;8.53;;
51384;SDS011;37478;55.682;37.462;2022-12-04T03:54:29;21.03;;;8.43;;
51384;SDS011;37478;55.682;37.462;2022-12-04T03:56:58;14.40;;;7.73;;
51384;SDS011;37478;55.682;37.462;2022-12-04T04:00:13;20.40;;;8.00;;
51384;SDS011;37478;55.682;37.462;2022-12-04T04:02:14;17.80;;;8.23;;
51384;SDS011;37478;55.682;37.462;2022-12-04T04:04:41;23.10;;;9.20;;
51384;SDS011;37478;55.682;37.462;2022-12-04T04:07:13;18.73;;;8.57;;
51384;SDS011;37478;55.682;37.462;2022-12-04T04:09:41;20.63;;;9.17;;
51384;SDS011;37478;55.682;37.462;2022-12-04T04:12:26;17.97;;;9.90;;
51384;SDS011;37478;55.682;37.462;2022-12-04T04:14:54;22.13;;;9.63;;
51384;SDS011;37478;55.682;37.462;2022-12-04T04:17:43;19.33;;;7.93;;
51384;SDS011;37478;55.682;37.462;2022-12-04T04:23:17;19.53;;;7.90;;
51384;SDS011;37478;55.682;37.462;2022-12-04T04:26:01;16.13;;;6.60;;
51384;SDS011;37478;55.682;37.462;2022-12-04T04:30:52;22.30;;;8.00;;
51384;SDS011;37478;55.682;37.462;2022-12-04T04:33:19;16.57;;;7.73;;
51384;SDS011;37478;55.682;37.462;2022-12-04T04:35:52;21.03;;;8.43;;
51384;SDS011;37478;55.682;37.462;2022-12-04T04:38:31;21.40;;;8.63;;
51384;SDS011;37478;55.682;37.462;2022-12-04T04:41:09;20.40;;;9.37;;
51384;SDS011;37478;55.682;37.462;2022-12-04T04:43:39;27.30;;;9.10;;
51384;SDS011;37478;55.682;37.462;2022-12-04T04:46:13;15.07;;;8.63;;
51384;SDS011;37478;55.682;37.462;2022-12-04T04:48:45;14.57;;;8.13;;
51384;SDS011;37478;55.682;37.462;2022-12-04T04:51:12;15.17;;;7.97;;
51384;SDS011;37478;55.682;37.462;2022-12-04T04:53:39;17.57;;;9.13;;
51384;SDS011;37478;55.682;37.462;2022-12-04T04:56:06;17.10;;;7.93;;
51384;SDS011;37478;55.682;37.462;2022-12-04T04:58:32;25.73;;;9.33;;
51384;SDS011;37478;55.682;37.462;2022-12-04T05:01:07;21.50;;;9.20;;
51384;SDS011;37478;55.682;37.462;2022-12-04T05:03:33;19.53;;;9.50;;
51384;SDS011;37478;55.682;37.462;2022-12-04T05:05:59;15.63;;;6.97;;
51384;SDS011;37478;55.682;37.462;2022-12-04T05:08:24;19.93;;;9.80;;
51384;SDS011;37478;55.682;37.462;2022-12-04T05:10:49;17.67;;;8.10;;
51384;SDS011;37478;55.682;37.462;2022-12-04T05:13:15;20.07;;;7.60;;
51384;SDS011;37478;55.682;37.462;2022-12-04T05:15:41;19.60;;;8.00;;
51384;SDS011;37478;55.682;37.462;2022-12-04T05:18:06;21.33;;;8.90;;
51384;SDS011;37478;55.682;37.462;2022-12-04T05:20:31;17.83;;;8.20;;
51384;SDS011;37478;55.682;37.462;2022-12-04T05:22:57;16.50;;;9.13;;
51384;SDS011;37478;55.682;37.462;2022-12-04T05:25:22;18.13;;;8.30;;
51384;SDS011;37478;55.682;37.462;2022-12-04T05:27:48;20.43;;;9.70;;
51384;SDS011;37478;55.682;37.462;2022-12-04T05:30:13;23.93;;;8.17;;
51384;SDS011;37478;55.682;37.462;2022-12-04T05:32:38;15.70;;;8.03;;
51384;SDS011;37478;55.682;37.462;2022-12-04T05:35:04;13.93;;;6.80;;
51384;SDS011;37478;55.682;37.462;2022-12-04T05:37:29;19.47;;;8.63;;
51384;SDS011;37478;55.682;37.462;2022-12-04T05:39:54;13.00;;;6.93;;
51384;SDS011;37478;55.682;37.462;2022-12-04T05:42:20;19.57;;;7.03;;
51384;SDS011;37478;55.682;37.462;2022-12-04T05:44:46;18.80;;;9.60;;
51384;SDS011;37478;55.682;37.462;2022-12-04T05:47:12;18.10;;;7.83;;
51384;SDS011;37478;55.682;37.462;2022-12-04T05:49:37;11.53;;;6.33;;
51384;SDS011;37478;55.682;37.462;2022-12-04T05:52:03;13.00;;;6.90;;
51384;SDS011;37478;55.682;37.462;2022-12-04T05:54:28;13.70;;;7.10;;
51384;SDS011;37478;55.682;37.462;2022-12-04T05:56:54;17.87;;;8.20;;
51384;SDS011;37478;55.682;37.462;2022-12-04T05:59:20;18.57;;;8.33;;
51384;SDS011;37478;55.682;37.462;2022-12-04T06:01:45;14.10;;;6.27;;
51384;SDS011;37478;55.682;37.462;2022-12-04T06:04:11;20.40;;;7.50;;
51384;SDS011;37478;55.682;37.462;2022-12-04T06:06:36;20.33;;;8.07;;
51384;SDS011;37478;55.682;37.462;2022-12-04T06:09:03;10.30;;;6.27;;
51384;SDS011;37478;55.682;37.462;2022-12-04T06:11:29;20.20;;;7.70;;
51384;SDS011;37478;55.682;37.462;2022-12-04T06:13:55;12.10;;;6.57;;
51384;SDS011;37478;55.682;37.462;2022-12-04T06:16:28;14.33;;;7.57;;
51384;SDS011;37478;55.682;37.462;2022-12-04T06:18:55;14.37;;;6.57;;
51384;SDS011;37478;55.682;37.462;2022-12-04T06:21:21;15.07;;;7.70;;
51384;SDS011;37478;55.682;37.462;2022-12-04T06:23:47;16.77;;;7.73;;
51384;SDS011;37478;55.682;37.462;2022-12-04T06:26:13;15.30;;;6.80;;
51384;SDS011;37478;55.682;37.462;2022-12-04T06:28:38;15.90;;;6.40;;
51384;SDS011;37478;55.682;37.462;2022-12-04T06:31:05;16.33;;;8.50;;
51384;SDS011;37478;55.682;37.462;2022-12-04T06:33:31;14.80;;;8.40;;
51384;SDS011;37478;55.682;37.462;2022-12-04T06:36:03;15.53;;;6.63;;
51384;SDS011;37478;55.682;37.462;2022-12-04T06:38:29;10.67;;;6.17;;
51384;SDS011;37478;55.682;37.462;2022-12-04T06:40:55;15.77;;;5.87;;
51384;SDS011;37478;55.682;37.462;2022-12-04T06:43:21;15.83;;;7.60;;
51384;SDS011;37478;55.682;37.462;2022-12-04T06:45:46;20.20;;;7.53;;
51384;SDS011;37478;55.682;37.462;2022-12-04T06:48:11;14.03;;;6.13;;
51384;SDS011;37478;55.682;37.462;2022-12-04T06:50:37;19.27;;;8.10;;
51384;SDS011;37478;55.682;37.462;2022-12-04T06:53:02;16.27;;;6.60;;
51384;SDS011;37478;55.682;37.462;2022-12-04T06:55:28;16.30;;;7.83;;
51384;SDS011;37478;55.682;37.462;2022-12-04T06:57:53;11.00;;;6.87;;
51384;SDS011;37478;55.682;37.462;2022-12-04T07:00:18;10.57;;;5.67;;
51384;SDS011;37478;55.682;37.462;2022-12-04T07:02:44;11.73;;;5.63;;
51384;SDS011;37478;55.682;37.462;2022-12-04T07:05:09;14.57;;;5.77;;
51384;SDS011;37478;55.682;37.462;2022-12-04T07:07:35;11.40;;;5.20;;
51384;SDS011;37478;55.682;37.462;2022-12-04T07:10:01;11.10;;;5.97;;
51384;SDS011;37478;55.682;37.462;2022-12-04T07:12:26;9.10;;;4.70;;
51384;SDS011;37478;55.682;37.462;2022-12-04T07:14:51;19.90;;;6.30;;
51384;SDS011;37478;55.682;37.462;2022-12-04T07:17:16;13.70;;;6.13;;
51384;SDS011;37478;55.682;37.462;2022-12-04T07:19:42;11.90;;;5.53;;
51384;SDS011;37478;55.682;37.462;2022-12-04T07:22:07;19.27;;;7.20;;
51384;SDS011;37478;55.682;37.462;2022-12-04T07:24:33;11.93;;;6.33;;
51384;SDS011;37478;55.682;37.462;2022-12-04T07:26:59;9.57;;;5.80;;
51384;SDS011;37478;55.682;37.462;2022-12-04T07:29:24;16.80;;;7.43;;
51384;SDS011;37478;55.682;37.462;2022-12-04T07:31:49;8.03;;;4.60;;
51384;SDS011;37478;55.682;37.462;2022-12-04T07:34:15;16.93;;;6.60;;
51384;SDS011;37478;55.682;37.462;2022-12-04T07:36:40;10.57;;;5.63;;
51384;SDS011;37478;55.682;37.462;2022-12-04T07:39:05;8.73;;;5.73;;
51384;SDS011;37478;55.682;37.462;2022-12-04T07:41:31;12.90;;;6.03;;
51384;SDS011;37478;55.682;37.462;2022-12-04T07:43:56;14.53;;;6.33;;
51384;SDS011;37478;55.682;37.462;2022-12-04T07:46:23;12.60;;;6.60;;
51384;SDS011;37478;55.682;37.462;2022-12-04T07:48:48;12.67;;;6.07;;
51384;SDS011;37478;55.682;37.462;2022-12-04T07:51:15;9.10;;;5.20;;
51384;SDS011;37478;55.682;37.462;2022-12-04T07:53:41;8.90;;;5.37;;
51384;SDS011;37478;55.682;37.462;2022-12-04T07:56:07;13.23;;;5.50;;
51384;SDS011;37478;55.682;37.462;2022-12-04T07:58:33;14.10;;;6.07;;
51384;SDS011;37478;55.682;37.462;2022-12-04T08:03:30;11.20;;;5.37;;
51384;SDS011;37478;55.682;37.462;2022-12-04T08:05:58;10.40;;;6.13;;
51384;SDS011;37478;55.682;37.462;2022-12-04T08:08:23;8.83;;;5.63;;
51384;SDS011;37478;55.682;37.462;2022-12-04T08:10:49;12.20;;;5.80;;
51384;SDS011;37478;55.682;37.462;2022-12-04T08:13:14;17.40;;;7.17;;
51384;SDS011;37478;55.682;37.462;2022-12-04T08:15:39;15.93;;;5.27;;
51384;SDS011;37478;55.682;37.462;2022-12-04T08:18:05;13.33;;;6.07;;
51384;SDS011;37478;55.682;37.462;2022-12-04T08:20:30;13.70;;;7.07;;
51384;SDS011;37478;55.682;37.462;2022-12-04T08:22:55;14.90;;;6.47;;
51384;SDS011;37478;55.682;37.462;2022-12-04T08:25:20;10.13;;;5.57;;
51384;SDS011;37478;55.682;37.462;2022-12-04T08:27:46;16.07;;;6.87;;
51384;SDS011;37478;55.682;37.462;2022-12-04T08:30:12;9.50;;;5.27;;
51384;SDS011;37478;55.682;37.462;2022-12-04T08:32:37;11.63;;;5.87;;
51384;SDS011;37478;55.682;37.462;2022-12-04T08:35:03;10.57;;;5.10;;
51384;SDS011;37478;55.682;37.462;2022-12-04T08:37:28;11.47;;;4.97;;
51384;SDS011;37478;55.682;37.462;2022-12-04T08:39:53;8.80;;;5.30;;
51384;SDS011;37478;55.682;37.462;2022-12-04T08:42:19;16.93;;;5.60;;
51384;SDS011;37478;55.682;37.462;2022-12-04T08:44:44;14.77;;;7.00;;
51384;SDS011;37478;55.682;37.462;2022-12-04T08:47:09;10.40;;;5.10;;
51384;SDS011;37478;55.682;37.462;2022-12-04T08:49:35;15.57;;;5.53;;
51384;SDS011;37478;55.682;37.462;2022-12-04T08:52:00;17.40;;;7.07;;
51384;SDS011;37478;55.682;37.462;2022-12-04T08:54:25;17.17;;;9.33;;
51384;SDS011;37478;55.682;37.462;2022-12-04T08:56:53;16.37;;;5.13;;
51384;SDS011;37478;55.682;37.462;2022-12-04T08:59:19;14.63;;;5.53;;
51384;SDS011;37478;55.682;37.462;2022-12-04T09:01:44;11.17;;;5.47;;
51384;SDS011;37478;55.682;37.462;2022-12-04T09:04:09;14.37;;;4.53;;
51384;SDS011;37478;55.682;37.462;2022-12-04T09:06:34;12.60;;;4.60;;
51384;SDS011;37478;55.682;37.462;2022-12-04T09:09:00;10.23;;;5.90;;
51384;SDS011;37478;55.682;37.462;2022-12-04T09:11:26;7.83;;;4.60;;
51384;SDS011;37478;55.682;37.462;2022-12-04T09:13:51;11.13;;;4.00;;
51384;SDS011;37478;55.682;37.462;2022-12-04T09:16:18;10.57;;;4.03;;
51384;SDS011;37478;55.682;37.462;2022-12-04T09:18:44;11.73;;;5.85;;
51384;SDS011;37478;55.682;37.462;2022-12-04T09:21:10;10.07;;;5.27;;
51384;SDS011;37478;55.682;37.462;2022-12-04T09:23:36;14.17;;;6.00;;
51384;SDS011;37478;55.682;37.462;2022-12-04T09:26:02;11.55;;;5.32;;
51384;SDS011;37478;55.682;37.462;2022-12-04T09:28:28;10.52;;;4.50;;
51384;SDS011;37478;55.682;37.462;2022-12-04T09:33:22;8.38;;;5.10;;
51384;SDS011;37478;55.682;37.462;2022-12-04T09:35:47;12.53;;;5.40;;
51384;SDS011;37478;55.682;37.462;2022-12-04T09:38:12;11.35;;;5.18;;
51384;SDS011;37478;55.682;37.462;2022-12-04T09:40:40;8.15;;;4.57;;
51384;SDS011;37478;55.682;37.462;2022-12-04T09:43:14;10.88;;;5.72;;
51384;SDS011;37478;55.682;37.462;2022-12-04T09:45:47;10.02;;;3.45;;
51384;SDS011;37478;55.682;37.462;2022-12-04T09:48:15;11.10;;;5.30;;
51384;SDS011;37478;55.682;37.462;2022-12-04T09:50:43;9.10;;;4.68;;
51384;SDS011;37478;55.682;37.462;2022-12-04T09:53:21;9.00;;;5.40;;
51384;SDS011;37478;55.682;37.462;2022-12-04T09:56:03;7.07;;;3.70;;
51384;SDS011;37478;55.682;37.462;2022-12-04T09:59:16;6.15;;;3.10;;
51384;SDS011;37478;55.682;37.462;2022-12-04T10:01:29;10.35;;;4.30;;
51384;SDS011;37478;55.682;37.462;2022-12-04T10:03:56;7.85;;;4.70;;
51384;SDS011;37478;55.682;37.462;2022-12-04T10:06:22;11.32;;;4.30;;
51384;SDS011;37478;55.682;37.462;2022-12-04T10:08:51;5.25;;;2.95;;
51384;SDS011;37478;55.682;37.462;2022-12-04T10:23:03;5.47;;;3.85;;
51384;SDS011;37478;55.682;37.462;2022-12-04T10:24:57;9.82;;;4.03;;
51384;SDS011;37478;55.682;37.462;2022-12-04T10:27:33;10.80;;;4.90;;
51384;SDS011;37478;55.682;37.462;2022-12-04T10:30:05;7.45;;;4.50;;
51384;SDS011;37478;55.682;37.462;2022-12-04T10:32:31;8.70;;;4.63;;
51384;SDS011;37478;55.682;37.462;2022-12-04T10:34:58;7.72;;;3.75;;
51384;SDS011;37478;55.682;37.462;2022-12-04T10:37:27;8.10;;;4.32;;
51384;SDS011;37478;55.682;37.462;2022-12-04T10:40:10;7.75;;;4.30;;
51384;SDS011;37478;55.682;37.462;2022-12-04T10:42:42;7.80;;;3.92;;
51384;SDS011;37478;55.682;37.462;2022-12-04T10:45:09;6.60;;;2.90;;
51384;SDS011;37478;55.682;37.462;2022-12-04T10:47:43;8.45;;;4.15;;
51384;SDS011;37478;55.682;37.462;2022-12-04T10:50:16;6.45;;;3.95;;
51384;SDS011;37478;55.682;37.462;2022-12-04T10:52:42;7.43;;;4.18;;
51384;SDS011;37478;55.682;37.462;2022-12-04T10:55:07;8.23;;;3.67;;
51384;SDS011;37478;55.682;37.462;2022-12-04T10:57:37;7.38;;;4.05;;
51384;SDS011;37478;55.682;37.462;2022-12-04T11:00:04;6.43;;;4.75;;
51384;SDS011;37478;55.682;37.462;2022-12-04T11:02:33;8.70;;;4.25;;
51384;SDS011;37478;55.682;37.462;2022-12-04T11:04:59;6.40;;;3.35;;
51384;SDS011;37478;55.682;37.462;2022-12-04T11:07:26;8.55;;;3.85;;
51384;SDS011;37478;55.682;37.462;2022-12-04T11:09:53;5.75;;;2.97;;
51384;SDS011;37478;55.682;37.462;2022-12-04T11:12:18;8.43;;;3.60;;
51384;SDS011;37478;55.682;37.462;2022-12-04T11:14:45;12.15;;;3.70;;
51384;SDS011;37478;55.682;37.462;2022-12-04T11:17:17;7.22;;;3.65;;
51384;SDS011;37478;55.682;37.462;2022-12-04T11:19:45;12.15;;;4.30;;
51384;SDS011;37478;55.682;37.462;2022-12-04T11:22:15;10.40;;;4.85;;
51384;SDS011;37478;55.682;37.462;2022-12-04T11:24:42;15.10;;;4.45;;
51384;SDS011;37478;55.682;37.462;2022-12-04T11:27:22;8.73;;;3.67;;
51384;SDS011;37478;55.682;37.462;2022-12-04T11:29:48;7.63;;;3.75;;
51384;SDS011;37478;55.682;37.462;2022-12-04T11:32:21;7.68;;;3.97;;
51384;SDS011;37478;55.682;37.462;2022-12-04T11:34:48;8.00;;;3.60;;
51384;SDS011;37478;55.682;37.462;2022-12-04T11:37:34;8.35;;;3.67;;
51384;SDS011;37478;55.682;37.462;2022-12-04T11:39:59;22.50;;;4.38;;
51384;SDS011;37478;55.682;37.462;2022-12-04T11:42:27;7.85;;;3.53;;
51384;SDS011;37478;55.682;37.462;2022-12-04T11:44:55;8.27;;;4.13;;
51384;SDS011;37478;55.682;37.462;2022-12-04T11:47:25;10.20;;;4.13;;
51384;SDS011;37478;55.682;37.462;2022-12-04T11:49:58;10.90;;;4.75;;
51384;SDS011;37478;55.682;37.462;2022-12-04T11:52:37;10.13;;;3.83;;
51384;SDS011;37478;55.682;37.462;2022-12-04T11:55:32;9.20;;;5.22;;
51384;SDS011;37478;55.682;37.462;2022-12-04T12:00:25;10.45;;;3.83;;
51384;SDS011;37478;55.682;37.462;2022-12-04T12:16:06;9.35;;;3.88;;
51384;SDS011;37478;55.682;37.462;2022-12-04T12:21:05;9.52;;;4.03;;
51384;SDS011;37478;55.682;37.462;2022-12-04T12:26:19;8.30;;;3.92;;
51384;SDS011;37478;55.682;37.462;2022-12-04T12:29:06;9.20;;;3.75;;
51384;SDS011;37478;55.682;37.462;2022-12-04T12:36:41;4.00;;;3.13;;
51384;SDS011;37478;55.682;37.462;2022-12-04T12:39:22;7.90;;;3.55;;
51384;SDS011;37478;55.682;37.462;2022-12-04T12:41:52;5.83;;;2.77;;
51384;SDS011;37478;55.682;37.462;2022-12-04T12:46:46;6.60;;;3.70;;
51384;SDS011;37478;55.682;37.462;2022-12-04T12:49:18;6.55;;;2.90;;
51384;SDS011;37478;55.682;37.462;2022-12-04T12:56:39;7.57;;;3.70;;
51384;SDS011;37478;55.682;37.462;2022-12-04T12:59:07;8.70;;;3.33;;
51384;SDS011;37478;55.682;37.462;2022-12-04T13:04:29;5.25;;;3.72;;
51384;SDS011;37478;55.682;37.462;2022-12-04T13:07:02;7.07;;;4.15;;
51384;SDS011;37478;55.682;37.462;2022-12-04T13:09:31;7.88;;;3.83;;
51384;SDS011;37478;55.682;37.462;2022-12-04T13:11:58;16.75;;;3.90;;
51384;SDS011;37478;55.682;37.462;2022-12-04T13:14:25;8.40;;;3.70;;
51384;SDS011;37478;55.682;37.462;2022-12-04T13:16:57;8.23;;;3.35;;
51384;SDS011;37478;55.682;37.462;2022-12-04T13:19:34;7.03;;;4.00;;
51384;SDS011;37478;55.682;37.462;2022-12-04T13:24:55;6.97;;;3.80;;
51384;SDS011;37478;55.682;37.462;2022-12-04T13:33:03;10.43;;;4.10;;
51384;SDS011;37478;55.682;37.462;2022-12-04T13:41:00;5.53;;;3.20;;
51384;SDS011;37478;55.682;37.462;2022-12-04T13:43:27;5.55;;;3.30;;
51384;SDS011;37478;55.682;37.462;2022-12-04T13:45:55;5.72;;;3.55;;
51384;SDS011;37478;55.682;37.462;2022-12-04T13:48:38;7.35;;;3.95;;
51384;SDS011;37478;55.682;37.462;2022-12-04T13:53:35;9.32;;;3.42;;
51384;SDS011;37478;55.682;37.462;2022-12-04T13:56:02;10.07;;;3.40;;
51384;SDS011;37478;55.682;37.462;2022-12-04T13:58:29;15.13;;;4.15;;
51384;SDS011;37478;55.682;37.462;2022-12-04T14:00:58;8.23;;;4.28;;
51384;SDS011;37478;55.682;37.462;2022-12-04T14:03:27;7.22;;;3.95;;
51384;SDS011;37478;55.682;37.462;2022-12-04T14:05:52;8.80;;;4.53;;
51384;SDS011;37478;55.682;37.462;2022-12-04T14:11:06;10.73;;;5.03;;
51384;SDS011;37478;55.682;37.462;2022-12-04T14:13:43;7.75;;;5.10;;
51384;SDS011;37478;55.682;37.462;2022-12-04T14:18:57;6.70;;;4.05;;
51384;SDS011;37478;55.682;37.462;2022-12-04T14:21:23;12.27;;;5.70;;
51384;SDS011;37478;55.682;37.462;2022-12-04T14:23:49;13.90;;;5.03;;
51384;SDS011;37478;55.682;37.462;2022-12-04T14:28:43;9.30;;;6.13;;
51384;SDS011;37478;55.682;37.462;2022-12-04T14:31:13;10.53;;;4.20;;
51384;SDS011;37478;55.682;37.462;2022-12-04T14:33:44;11.43;;;5.17;;
51384;SDS011;37478;55.682;37.462;2022-12-04T14:36:15;12.80;;;4.87;;
51384;SDS011;37478;55.682;37.462;2022-12-04T14:38:46;9.97;;;5.67;;
51384;SDS011;37478;55.682;37.462;2022-12-04T14:41:12;12.93;;;5.73;;
51384;SDS011;37478;55.682;37.462;2022-12-04T14:43:38;12.00;;;5.33;;
51384;SDS011;37478;55.682;37.462;2022-12-04T14:46:22;9.37;;;4.17;;
51384;SDS011;37478;55.682;37.462;2022-12-04T14:49:03;12.77;;;6.85;;
51384;SDS011;37478;55.682;37.462;2022-12-04T14:51:37;11.30;;;5.03;;
51384;SDS011;37478;55.682;37.462;2022-12-04T14:59:22;10.63;;;5.30;;
51384;SDS011;37478;55.682;37.462;2022-12-04T15:01:49;8.30;;;4.97;;
51384;SDS011;37478;55.682;37.462;2022-12-04T15:04:26;10.70;;;5.10;;
51384;SDS011;37478;55.682;37.462;2022-12-04T15:06:51;13.27;;;5.53;;
51384;SDS011;37478;55.682;37.462;2022-12-04T15:09:19;22.43;;;7.40;;
51384;SDS011;37478;55.682;37.462;2022-12-04T15:12:20;15.10;;;5.63;;
51384;SDS011;37478;55.682;37.462;2022-12-04T15:14:57;14.37;;;6.30;;
51384;SDS011;37478;55.682;37.462;2022-12-04T15:17:24;15.30;;;5.10;;
51384;SDS011;37478;55.682;37.462;2022-12-04T15:19:49;11.63;;;6.40;;
51384;SDS011;37478;55.682;37.462;2022-12-04T15:22:24;11.20;;;5.27;;
51384;SDS011;37478;55.682;37.462;2022-12-04T15:24:50;14.98;;;6.82;;
51384;SDS011;37478;55.682;37.462;2022-12-04T15:27:16;9.97;;;5.40;;
51384;SDS011;37478;55.682;37.462;2022-12-04T15:29:44;8.63;;;4.60;;
51384;SDS011;37478;55.682;37.462;2022-12-04T15:32:12;13.20;;;6.03;;
51384;SDS011;37478;55.682;37.462;2022-12-04T15:37:15;8.50;;;5.30;;
51384;SDS011;37478;55.682;37.462;2022-12-04T15:39:42;16.52;;;6.90;;
51384;SDS011;37478;55.682;37.462;2022-12-04T15:44:49;11.90;;;4.93;;
51384;SDS011;37478;55.682;37.462;2022-12-04T15:47:16;7.07;;;5.07;;
51384;SDS011;37478;55.682;37.462;2022-12-04T15:49:43;9.97;;;5.10;;
51384;SDS011;37478;55.682;37.462;2022-12-04T15:54:34;7.53;;;4.20;;
51384;SDS011;37478;55.682;37.462;2022-12-04T15:57:04;7.68;;;4.30;;
51384;SDS011;37478;55.682;37.462;2022-12-04T15:59:30;9.07;;;5.32;;
51384;SDS011;37478;55.682;37.462;2022-12-04T16:01:59;14.65;;;4.90;;
51384;SDS011;37478;55.682;37.462;2022-12-04T16:04:28;10.52;;;5.70;;
51384;SDS011;37478;55.682;37.462;2022-12-04T16:06:53;15.97;;;5.10;;
51384;SDS011;37478;55.682;37.462;2022-12-04T16:09:21;7.90;;;4.53;;
51384;SDS011;37478;55.682;37.462;2022-12-04T16:11:55;7.67;;;5.10;;
51384;SDS011;37478;55.682;37.462;2022-12-04T16:14:21;9.37;;;5.70;;
51384;SDS011;37478;55.682;37.462;2022-12-04T16:16:47;8.73;;;4.63;;
51384;SDS011;37478;55.682;37.462;2022-12-04T16:19:15;9.13;;;4.90;;
51384;SDS011;37478;55.682;37.462;2022-12-04T16:21:41;14.83;;;5.40;;
51384;SDS011;37478;55.682;37.462;2022-12-04T16:24:06;12.43;;;5.83;;
51384;SDS011;37478;55.682;37.462;2022-12-04T16:26:31;9.87;;;4.37;;
51384;SDS011;37478;55.682;37.462;2022-12-04T16:28:57;9.50;;;4.93;;